Time;durP1;ratioP1;P1;durP2;ratioP2;P2;SDS_P1;SDS_P2;PMS_P1;PMS_P2;Temp;Humidity;BMP_temperature;BMP_pressure;BME280_temperature;BME280_humidity;BME280_pressure;Samples;Min_cycle;Max_cycle;Signal;HPM_P1;HPM_P2
2022/01/15 00:01:43;;;;;;;400.02;185.93;;;-2.50;99.90;;;;;;4978098;28;20050;-79
2022/01/15 00:04:09;;;;;;;420.88;197.00;;;-2.50;99.90;;;;;;5003975;28;20115;-79
2022/01/15 00:06:35;;;;;;;403.85;196.40;;;-2.50;99.90;;;;;;5079990;28;20470;-80
2022/01/15 00:09:03;;;;;;;416.45;199.38;;;-1.70;99.90;;;;;;5079864;28;20044;-79
2022/01/15 00:11:29;;;;;;;436.17;212.65;;;-2.40;99.90;;;;;;5080567;28;20012;-79
2022/01/15 00:14:12;;;;;;;396.73;189.82;;;-2.50;99.90;;;;;;5062727;28;20070;-79
2022/01/15 00:16:56;;;;;;;381.33;179.48;;;-2.50;99.90;;;;;;5081095;28;20216;-79
2022/01/15 00:20:05;;;;;;;361.02;174.27;;;-2.50;99.90;;;;;;5097193;28;20051;-79
2022/01/15 00:22:22;;;;;;;388.67;184.55;;;-2.50;99.90;;;;;;5095184;28;20024;-78
2022/01/15 00:24:48;;;;;;;386.42;183.70;;;-2.50;99.90;;;;;;5101067;28;20032;-79
2022/01/15 00:27:14;;;;;;;395.23;182.85;;;-2.50;99.90;;;;;;5089703;28;20544;-79
2022/01/15 00:29:42;;;;;;;420.52;201.98;;;-2.60;99.90;;;;;;5065353;28;20289;-79
2022/01/15 00:32:08;;;;;;;393.30;185.98;;;-2.60;99.90;;;;;;5082119;28;20021;-79
2022/01/15 00:34:36;;;;;;;353.13;158.70;;;-1.30;99.90;;;;;;5063292;28;20097;-79
2022/01/15 00:37:06;;;;;;;394.67;193.77;;;-2.60;99.90;;;;;;5062859;28;20055;-79
2022/01/15 00:39:32;;;;;;;385.77;182.38;;;-2.60;99.90;;;;;;5062186;28;20102;-79
2022/01/15 00:41:58;;;;;;;385.30;187.30;;;-2.60;99.90;;;;;;5080497;28;20050;-79
2022/01/15 00:44:24;;;;;;;399.85;193.43;;;-2.70;99.90;;;;;;5063562;28;20032;-79
2022/01/15 00:46:50;;;;;;;400.15;191.95;;;-2.30;99.90;;;;;;5090271;28;20024;-79
2022/01/15 00:49:18;;;;;;;414.08;196.57;;;-1.80;99.90;;;;;;5071244;28;20090;-79
2022/01/15 00:51:46;;;;;;;429.67;202.85;;;-2.60;99.90;;;;;;5070617;28;20013;-79
2022/01/15 00:54:15;;;;;;;425.70;200.85;;;-2.70;99.90;;;;;;5067391;28;20048;-79
2022/01/15 00:56:42;;;;;;;414.95;203.30;;;-2.70;99.90;;;;;;5081610;28;20388;-79
2022/01/15 00:59:08;;;;;;;412.67;204.07;;;-2.70;99.90;;;;;;5082486;28;20081;-79
2022/01/15 01:01:34;;;;;;;383.00;181.93;;;-2.70;99.90;;;;;;5062768;28;20028;-79
2022/01/15 01:04:00;;;;;;;334.45;156.35;;;-2.70;99.90;;;;;;5080890;28;20315;-79
2022/01/15 01:06:25;;;;;;;310.30;143.50;;;-2.70;99.90;;;;;;5080498;28;20020;-80
2022/01/15 01:08:51;;;;;;;300.50;139.13;;;-2.70;99.90;;;;;;5079886;28;20123;-79
2022/01/15 01:11:32;;;;;;;328.52;151.15;;;-1.80;99.90;;;;;;5061612;28;20236;-79
2022/01/15 01:24:43;;;;;;;293.38;136.63;;;-2.80;99.90;;;;;;5079390;28;20556;-79
2022/01/15 01:27:16;;;;;;;303.90;138.68;;;-2.80;99.90;;;;;;5078857;28;20016;-79
2022/01/15 01:29:55;;;;;;;300.35;137.77;;;-1.10;99.90;;;;;;5060360;28;20066;-79
2022/01/15 01:35:09;;;;;;;299.65;138.85;;;-2.30;99.90;;;;;;5078843;28;20106;-79
2022/01/15 01:37:43;;;;;;;317.98;149.15;;;-2.80;99.90;;;;;;5060737;28;20399;-79
2022/01/15 01:40:22;;;;;;;350.40;155.73;;;-2.80;99.90;;;;;;5078646;28;20097;-79
2022/01/15 01:43:28;;;;;;;365.52;156.57;;;-2.80;99.90;;;;;;5078680;28;20016;-79
2022/01/15 01:45:37;;;;;;;369.25;166.25;;;-2.90;99.90;;;;;;5075940;28;20069;-79
2022/01/15 01:48:03;;;;;;;367.65;163.60;;;-2.80;99.90;;;;;;5078324;28;20456;-79
2022/01/15 01:50:29;;;;;;;360.30;165.93;;;-2.80;99.90;;;;;;5078511;28;20018;-79
2022/01/15 01:52:57;;;;;;;363.50;166.52;;;-2.80;99.90;;;;;;5059852;28;20115;-79
2022/01/15 01:55:26;;;;;;;353.25;163.23;;;-2.80;99.90;;;;;;5078130;28;20316;-79
2022/01/15 01:57:53;;;;;;;335.67;159.10;;;-2.80;99.90;;;;;;5078317;28;20043;-79
2022/01/15 02:00:21;;;;;;;400.73;187.75;;;-2.70;99.90;;;;;;5078148;28;20071;-78
2022/01/15 02:02:48;;;;;;;398.67;194.52;;;-2.70;99.90;;;;;;5077829;28;20547;-79
2022/01/15 02:05:15;;;;;;;423.33;205.70;;;-2.70;99.90;;;;;;5077814;28;20020;-79
2022/01/15 02:07:45;;;;;;;442.73;217.55;;;-2.00;99.90;;;;;;5059282;28;20348;-79
2022/01/15 02:10:14;;;;;;;456.13;232.07;;;-2.60;99.90;;;;;;5078182;28;20058;-79
2022/01/15 02:12:40;;;;;;;438.35;219.38;;;-3.00;99.90;;;;;;5059975;28;20016;-79
2022/01/15 02:15:15;;;;;;;459.02;225.02;;;-2.60;99.90;;;;;;5059784;28;20475;-79
2022/01/15 02:17:42;;;;;;;433.27;213.68;;;-2.50;99.90;;;;;;5059666;28;20024;-79
2022/01/15 02:25:44;;;;;;;432.10;212.40;;;-2.30;99.90;;;;;;5077691;28;20286;-79
2022/01/15 02:28:10;;;;;;;440.33;218.93;;;-2.30;99.90;;;;;;5058849;28;20697;-79
2022/01/15 02:30:39;;;;;;;436.33;214.50;;;-2.20;99.90;;;;;;5077401;28;20193;-79
2022/01/15 02:33:06;;;;;;;435.85;211.63;;;-0.40;99.90;;;;;;5077444;28;20028;-79
2022/01/15 02:35:33;;;;;;;431.23;217.85;;;-0.80;99.90;;;;;;5058977;28;20035;-79
2022/01/15 02:38:03;;;;;;;457.00;231.18;;;-2.10;99.90;;;;;;5058777;28;20043;-79
2022/01/15 02:40:29;;;;;;;480.15;244.80;;;-2.10;99.90;;;;;;5077383;28;20115;-79
2022/01/15 02:42:56;;;;;;;477.85;241.55;;;-2.10;99.90;;;;;;5077264;28;20103;-79
2022/01/15 02:45:26;;;;;;;476.58;245.48;;;-2.00;99.90;;;;;;5077323;28;20016;-79
2022/01/15 02:48:01;;;;;;;455.23;240.38;;;-2.00;99.90;;;;;;5077437;28;20065;-79
2022/01/15 02:50:32;;;;;;;461.60;238.63;;;-2.00;99.90;;;;;;5058795;28;20024;-79
2022/01/15 02:53:04;;;;;;;446.60;232.95;;;-3.60;99.90;;;;;;5058776;28;20059;-79
2022/01/15 02:55:31;;;;;;;487.95;252.00;;;-2.00;99.90;;;;;;5058711;28;20413;-80
2022/01/15 02:57:56;;;;;;;479.85;248.77;;;-2.00;99.90;;;;;;5077422;28;20042;-79
2022/01/15 03:00:24;;;;;;;474.92;244.95;;;-2.00;99.90;;;;;;5058958;28;20036;-78
2022/01/15 03:02:50;;;;;;;487.70;245.48;;;-2.00;99.90;;;;;;5059034;28;20024;-79
2022/01/15 03:05:16;;;;;;;462.50;234.23;;;-1.90;99.90;;;;;;5058838;28;20098;-79
2022/01/15 03:07:41;;;;;;;446.35;227.63;;;-1.90;99.90;;;;;;5059438;28;20687;-79
2022/01/15 03:10:11;;;;;;;463.33;240.43;;;-2.00;99.90;;;;;;5059180;28;20020;-79
2022/01/15 03:12:46;;;;;;;497.75;260.73;;;-1.90;99.90;;;;;;5059127;28;20074;-79
2022/01/15 03:15:19;;;;;;;535.35;277.48;;;-1.90;99.90;;;;;;5060097;28;20040;-79
2022/01/15 03:17:48;;;;;;;528.35;281.00;;;-2.00;99.90;;;;;;5080787;28;20024;-79
2022/01/15 03:20:16;;;;;;;511.83;271.23;;;-2.00;99.90;;;;;;5080837;28;20016;-79
2022/01/15 03:22:42;;;;;;;519.55;273.80;;;-2.00;99.90;;;;;;5061791;28;20074;-79
2022/01/15 03:25:09;;;;;;;517.53;277.35;;;-2.00;99.90;;;;;;5080333;28;20631;-79
2022/01/15 03:27:35;;;;;;;532.58;281.45;;;-2.00;99.90;;;;;;5062449;28;20351;-79
2022/01/15 03:30:01;;;;;;;531.63;277.67;;;-2.10;99.90;;;;;;5080637;28;20805;-79
2022/01/15 03:32:27;;;;;;;512.03;271.83;;;-2.20;99.90;;;;;;5062218;28;20036;-79
2022/01/15 03:34:53;;;;;;;507.90;265.33;;;-2.20;99.90;;;;;;5080300;28;20301;-79
2022/01/15 03:37:21;;;;;;;515.28;269.48;;;-2.20;99.90;;;;;;5080172;28;20012;-79
2022/01/15 03:39:48;;;;;;;516.55;271.77;;;-2.20;99.90;;;;;;5062011;28;20024;-79
2022/01/15 03:42:14;;;;;;;504.88;262.75;;;-2.20;99.90;;;;;;5080435;28;20055;-79
2022/01/15 03:44:45;;;;;;;492.23;254.02;;;-2.20;99.90;;;;;;5062081;28;20063;-79
2022/01/15 03:47:12;;;;;;;494.58;258.58;;;-2.20;99.90;;;;;;5062080;28;20253;-79
2022/01/15 03:49:39;;;;;;;467.60;250.35;;;-2.20;99.90;;;;;;5061929;28;20563;-79
2022/01/15 03:52:06;;;;;;;486.83;256.33;;;-2.10;99.90;;;;;;5080154;28;20047;-79
2022/01/15 03:54:33;;;;;;;481.45;250.20;;;-2.10;99.90;;;;;;5080322;28;20103;-80
2022/01/15 03:56:59;;;;;;;485.50;252.43;;;-2.10;99.90;;;;;;5062242;28;20426;-79
2022/01/15 03:59:25;;;;;;;496.17;251.40;;;-1.40;99.90;;;;;;5062256;28;20329;-79
2022/01/15 04:01:51;;;;;;;489.20;254.40;;;-1.70;99.90;;;;;;5080611;28;20451;-79
2022/01/15 04:04:18;;;;;;;476.90;244.73;;;-2.10;99.90;;;;;;5062168;28;20063;-79
2022/01/15 04:06:44;;;;;;;473.52;246.70;;;-2.10;99.90;;;;;;5080024;28;20048;-80
2022/01/15 04:09:10;;;;;;;477.48;245.80;;;-2.10;99.90;;;;;;5061502;28;20118;-79
2022/01/15 04:11:39;;;;;;;456.40;240.73;;;-2.10;99.90;;;;;;5061356;28;20552;-79
2022/01/15 04:14:06;;;;;;;455.23;239.23;;;-2.20;99.90;;;;;;5079310;28;20059;-79
2022/01/15 04:16:32;;;;;;;467.85;240.00;;;-2.20;99.90;;;;;;5060911;28;20639;-79
2022/01/15 04:19:02;;;;;;;473.98;247.30;;;-2.20;99.90;;;;;;5061434;28;20078;-79
2022/01/15 04:21:28;;;;;;;462.52;238.75;;;-2.20;99.90;;;;;;5061076;28;20757;-79
2022/01/15 04:23:54;;;;;;;480.88;242.32;;;-2.20;99.90;;;;;;5079353;28;20099;-79
2022/01/15 04:26:25;;;;;;;455.60;231.85;;;-2.20;99.90;;;;;;5079164;28;20312;-79
2022/01/15 04:28:52;;;;;;;451.48;230.40;;;-2.20;99.90;;;;;;5079000;28;20467;-80
2022/01/15 04:31:18;;;;;;;445.67;232.90;;;-2.20;99.90;;;;;;5079063;28;20036;-79
2022/01/15 04:33:45;;;;;;;473.75;239.23;;;-1.80;99.90;;;;;;5060890;28;20031;-79
2022/01/15 04:36:11;;;;;;;451.00;231.35;;;-2.20;99.90;;;;;;5079089;28;20111;-79
2022/01/15 04:38:38;;;;;;;444.25;231.15;;;-2.20;99.90;;;;;;5061054;28;20020;-79
2022/01/15 04:41:05;;;;;;;439.35;229.77;;;-2.20;99.90;;;;;;5060657;28;20281;-78
2022/01/15 04:43:31;;;;;;;455.35;231.77;;;-2.20;99.90;;;;;;5078916;28;20102;-79
2022/01/15 04:45:58;;;;;;;463.63;239.90;;;-2.20;99.90;;;;;;5061112;28;20499;-79
2022/01/15 04:48:24;;;;;;;457.45;233.88;;;-2.20;99.90;;;;;;5078974;28;20422;-79
2022/01/15 04:50:50;;;;;;;465.98;241.65;;;-2.00;99.90;;;;;;5078933;28;20044;-79
2022/01/15 04:53:16;;;;;;;461.23;238.20;;;-2.30;99.90;;;;;;5078991;28;20063;-79
2022/01/15 04:55:42;;;;;;;485.73;243.15;;;-2.30;99.90;;;;;;5078613;28;20058;-79
2022/01/15 04:58:08;;;;;;;476.45;242.38;;;-2.40;99.90;;;;;;5078711;28;20024;-79
2022/01/15 05:00:34;;;;;;;470.23;242.98;;;-2.40;99.90;;;;;;5078791;28;20444;-79
2022/01/15 05:03:00;;;;;;;464.67;238.55;;;-2.40;99.90;;;;;;5060631;28;20054;-79
2022/01/15 05:05:27;;;;;;;461.60;244.32;;;-2.40;99.90;;;;;;5078748;28;20398;-79
2022/01/15 05:07:54;;;;;;;468.52;243.63;;;-2.30;99.90;;;;;;5060035;28;20135;-80
2022/01/15 05:10:24;;;;;;;479.17;249.20;;;-2.30;99.90;;;;;;5060179;28;20028;-79
2022/01/15 05:12:51;;;;;;;488.95;254.55;;;-2.30;99.90;;;;;;5078419;28;20016;-78
2022/01/15 05:15:18;;;;;;;473.88;251.15;;;-2.20;99.90;;;;;;5059703;28;20028;-79
2022/01/15 05:17:48;;;;;;;461.88;243.35;;;-1.30;99.90;;;;;;5060041;28;20511;-79
2022/01/15 05:20:18;;;;;;;448.38;232.48;;;-2.20;99.90;;;;;;5078497;28;20111;-79
2022/01/15 05:22:54;;;;;;;423.67;216.93;;;-1.50;99.90;;;;;;5059791;28;20016;-79
2022/01/15 05:25:20;;;;;;;;;;;-2.20;99.90;;;;;;5059842;28;20035;-79
2022/01/15 05:27:46;;;;;;;422.50;210.73;;;-2.00;99.90;;;;;;5076814;28;20119;-79
2022/01/15 05:30:15;;;;;;;420.60;215.00;;;-2.10;99.90;;;;;;5060071;28;20028;-79
2022/01/15 05:32:41;;;;;;;425.90;214.77;;;-2.10;99.90;;;;;;5078642;28;20073;-79
2022/01/15 05:35:07;;;;;;;412.23;213.65;;;-1.70;99.90;;;;;;5077746;28;20036;-79
2022/01/15 05:37:33;;;;;;;407.83;210.00;;;-2.10;99.90;;;;;;5059289;28;20094;-79
2022/01/15 05:39:59;;;;;;;420.98;216.70;;;-2.10;99.90;;;;;;5059885;28;20433;-79
2022/01/15 05:42:25;;;;;;;427.05;213.13;;;-2.00;99.90;;;;;;5061351;28;20219;-79
2022/01/15 05:44:50;;;;;;;411.60;212.65;;;-1.70;99.90;;;;;;5081138;28;20484;-79
2022/01/15 05:47:16;;;;;;;414.48;215.52;;;-2.00;99.90;;;;;;5081915;28;20027;-79
2022/01/15 05:49:42;;;;;;;413.95;210.88;;;-2.00;99.90;;;;;;5062171;28;20257;-79
2022/01/15 05:52:08;;;;;;;387.65;200.55;;;-2.10;99.90;;;;;;5078328;28;20067;-79
2022/01/15 05:54:33;;;;;;;396.85;201.20;;;-2.10;99.90;;;;;;5059481;28;20024;-79
2022/01/15 05:56:59;;;;;;;394.70;199.00;;;-1.40;99.90;;;;;;5078203;28;20117;-79
2022/01/15 05:59:25;;;;;;;400.02;198.45;;;-1.90;99.90;;;;;;5077728;28;20023;-79
2022/01/15 06:01:57;;;;;;;379.10;187.50;;;-2.20;99.90;;;;;;5077602;28;20024;-79
2022/01/15 06:04:23;;;;;;;387.35;192.00;;;-0.60;99.90;;;;;;5059488;28;20021;-79
2022/01/15 06:06:52;;;;;;;400.88;202.48;;;-2.30;99.90;;;;;;5077570;28;20534;-79
2022/01/15 06:09:17;;;;;;;386.70;197.80;;;-2.30;99.90;;;;;;5059726;28;20154;-79
2022/01/15 06:11:43;;;;;;;412.27;204.25;;;-2.40;99.90;;;;;;5059554;28;20035;-79
2022/01/15 06:14:09;;;;;;;397.13;199.52;;;-2.00;99.90;;;;;;5058839;28;20028;-79
2022/01/15 06:16:36;;;;;;;392.85;196.82;;;-1.80;99.90;;;;;;5077587;28;20644;-79
2022/01/15 06:19:02;;;;;;;385.40;193.65;;;-2.40;99.90;;;;;;5058886;28;20028;-79
2022/01/15 06:21:30;;;;;;;394.05;197.13;;;-2.40;99.90;;;;;;5077498;28;20021;-80
2022/01/15 06:23:56;;;;;;;385.25;192.57;;;-2.50;99.90;;;;;;5078190;28;20103;-79
2022/01/15 06:26:22;;;;;;;399.85;198.77;;;-2.50;99.90;;;;;;5077549;28;20115;-79
2022/01/15 06:28:50;;;;;;;388.83;198.70;;;-2.50;99.90;;;;;;5058266;28;20051;-79
2022/01/15 06:31:16;;;;;;;400.67;201.25;;;-2.50;99.90;;;;;;5076999;28;20285;-79
2022/01/15 06:33:41;;;;;;;422.67;220.63;;;-2.60;99.90;;;;;;5077310;28;20460;-79
2022/01/15 06:36:07;;;;;;;445.23;221.02;;;-2.60;99.90;;;;;;5077252;28;20024;-79
2022/01/15 06:38:33;;;;;;;439.70;226.40;;;-2.60;99.90;;;;;;5077369;28;20391;-80
2022/01/15 06:40:59;;;;;;;461.10;239.13;;;-2.80;99.90;;;;;;5077089;28;20016;-79
2022/01/15 06:43:24;;;;;;;483.17;246.63;;;-2.60;99.90;;;;;;5077760;28;20039;-79
2022/01/15 06:45:50;;;;;;;482.63;240.75;;;-2.60;99.90;;;;;;5059479;28;20491;-79
2022/01/15 06:48:16;;;;;;;477.00;240.70;;;-2.60;99.90;;;;;;5034085;28;20451;-79
2022/01/15 06:50:43;;;;;;;487.35;246.18;;;-2.70;99.90;;;;;;5019099;28;20260;-79
2022/01/15 06:53:09;;;;;;;478.70;238.18;;;-2.70;99.90;;;;;;5020963;28;20029;-79
2022/01/15 06:55:34;;;;;;;480.48;244.32;;;-2.60;99.90;;;;;;5037566;28;20075;-79
2022/01/15 06:58:03;;;;;;;482.60;247.43;;;-2.70;99.90;;;;;;5038079;28;20059;-79
2022/01/15 07:00:29;;;;;;;471.17;239.90;;;-2.70;99.90;;;;;;5021165;28;20041;-79
2022/01/15 07:03:00;;;;;;;447.15;235.55;;;-2.70;99.90;;;;;;5038025;28;20373;-79
2022/01/15 07:05:29;;;;;;;458.48;236.70;;;-2.70;99.90;;;;;;5037569;28;20363;-79
2022/01/15 07:07:56;;;;;;;479.13;241.48;;;-2.60;99.90;;;;;;5037147;28;20049;-79
2022/01/15 07:10:22;;;;;;;485.23;241.52;;;-2.60;99.90;;;;;;5021144;28;20115;-79
2022/01/15 07:12:48;;;;;;;465.05;240.18;;;-2.20;99.90;;;;;;5037513;28;20399;-79
2022/01/15 07:15:13;;;;;;;467.58;238.45;;;-2.60;99.90;;;;;;5037892;28;20108;-79
2022/01/15 07:17:44;;;;;;;482.33;254.02;;;-2.60;99.90;;;;;;5021016;28;20021;-79
2022/01/15 07:20:11;;;;;;;494.20;256.88;;;-2.60;99.90;;;;;;5021003;28;20033;-79
2022/01/15 07:22:39;;;;;;;483.45;244.80;;;-2.60;99.90;;;;;;5020919;28;20539;-79
2022/01/15 07:25:06;;;;;;;495.27;254.65;;;-2.60;99.90;;;;;;5042744;28;20599;-79
2022/01/15 07:27:34;;;;;;;500.52;258.95;;;-2.50;99.90;;;;;;5059151;28;20048;-79
2022/01/15 07:30:01;;;;;;;470.85;243.32;;;-2.50;99.90;;;;;;5060828;28;20237;-79
2022/01/15 07:32:30;;;;;;;446.40;233.70;;;-1.80;99.90;;;;;;5059655;28;20283;-78
2022/01/15 07:34:56;;;;;;;455.88;237.18;;;-2.40;99.90;;;;;;5060936;28;20070;-79
2022/01/15 07:37:22;;;;;;;472.30;250.15;;;-2.20;99.90;;;;;;5061020;28;20041;-79
2022/01/15 07:39:47;;;;;;;456.70;245.45;;;-2.20;99.90;;;;;;5059240;28;20043;-79
2022/01/15 07:42:14;;;;;;;445.83;229.70;;;-1.90;99.90;;;;;;5060284;28;20114;-79
2022/01/15 07:44:40;;;;;;;444.20;227.82;;;-2.00;99.90;;;;;;5042670;28;20036;-79
2022/01/15 07:47:06;;;;;;;436.30;226.75;;;-2.00;99.90;;;;;;5060830;28;20308;-80
2022/01/15 07:49:34;;;;;;;440.50;223.02;;;-2.00;99.90;;;;;;5060055;28;20579;-79
2022/01/15 07:52:06;;;;;;;440.88;229.75;;;-1.70;99.90;;;;;;5059179;28;20158;-80
2022/01/15 07:54:34;;;;;;;413.75;215.75;;;-1.80;99.90;;;;;;5060246;28;20447;-79
2022/01/15 07:57:00;;;;;;;445.00;229.02;;;-1.80;99.90;;;;;;5060421;28;20099;-79
2022/01/15 07:59:28;;;;;;;444.20;227.68;;;-1.70;99.90;;;;;;5058781;28;20104;-79
2022/01/15 08:01:54;;;;;;;445.55;232.65;;;-1.70;99.90;;;;;;5062044;28;20024;-79
2022/01/15 08:04:26;;;;;;;421.08;214.48;;;-1.60;99.50;;;;;;5069111;28;20060;-79
2022/01/15 08:12:52;;;;;;;454.27;230.52;;;-1.40;99.40;;;;;;4831342;29;20030;-79
2022/01/15 08:15:28;;;;;;;448.17;226.68;;;-1.10;99.40;;;;;;4815192;29;20195;-79
2022/01/15 08:17:56;;;;;;;492.65;247.70;;;-0.80;99.00;;;;;;4814840;29;20054;-79
2022/01/15 08:20:36;;;;;;;445.63;230.10;;;-1.10;98.80;;;;;;4829180;29;20433;-78
2022/01/15 08:23:05;;;;;;;413.25;216.98;;;-0.70;97.90;;;;;;4812919;29;20414;-79
2022/01/15 08:25:36;;;;;;;433.23;222.32;;;-0.80;98.10;;;;;;4815725;29;20037;-79
2022/01/15 08:28:05;;;;;;;421.13;225.45;;;-1.00;97.30;;;;;;4832909;29;20050;-79
2022/01/15 08:30:31;;;;;;;420.90;219.32;;;-0.90;97.80;;;;;;4832003;29;20038;-80
2022/01/15 08:32:59;;;;;;;428.38;226.60;;;-0.20;98.70;;;;;;4831095;29;20360;-79
2022/01/15 08:35:46;;;;;;;432.75;225.20;;;-0.50;98.10;;;;;;4812665;29;20034;-79
2022/01/15 08:38:11;;;;;;;419.98;222.13;;;-0.50;97.70;;;;;;4826774;29;20128;-79
2022/01/15 08:40:37;;;;;;;441.25;236.50;;;-0.20;97.90;;;;;;4826476;29;20659;-79
2022/01/15 08:43:06;;;;;;;444.00;233.30;;;-0.80;97.20;;;;;;4825850;29;20113;-80
2022/01/15 08:45:37;;;;;;;443.00;235.88;;;-0.30;96.70;;;;;;4826057;29;20034;-80
2022/01/15 08:48:07;;;;;;;451.60;238.70;;;-0.10;96.40;;;;;;4946063;28;20456;-80
2022/01/15 08:50:42;;;;;;;441.00;231.55;;;-0.10;96.50;;;;;;5030459;28;20122;-80
2022/01/15 08:53:07;;;;;;;442.67;235.82;;;0.10;96.00;;;;;;5057380;28;20127;-79
2022/01/15 08:55:39;;;;;;;460.73;249.88;;;0.30;95.60;;;;;;5040616;28;20115;-79
2022/01/15 08:58:05;;;;;;;475.38;260.60;;;0.50;95.50;;;;;;5059126;28;20021;-80
2022/01/15 09:00:31;;;;;;;474.15;255.85;;;0.70;95.00;;;;;;5059074;28;20028;-79
2022/01/15 09:02:57;;;;;;;499.98;264.80;;;0.90;94.80;;;;;;5058878;28;20255;-79
2022/01/15 09:05:30;;;;;;;461.05;245.50;;;1.00;94.30;;;;;;5059170;28;20568;-79
2022/01/15 09:08:01;;;;;;;446.55;242.88;;;1.20;93.80;;;;;;5057160;28;20369;-79
2022/01/15 09:10:27;;;;;;;441.50;240.75;;;1.30;93.90;;;;;;5078617;28;20031;-80
2022/01/15 09:12:52;;;;;;;449.50;246.82;;;1.40;93.60;;;;;;5059523;28;20024;-80
2022/01/15 09:15:21;;;;;;;433.35;236.23;;;1.60;93.10;;;;;;5078955;28;20050;-79
2022/01/15 09:17:47;;;;;;;437.05;233.93;;;1.70;93.00;;;;;;5055043;28;20033;-79
2022/01/15 09:20:13;;;;;;;423.45;233.20;;;1.80;92.80;;;;;;5055118;28;20363;-79
2022/01/15 09:22:39;;;;;;;422.67;235.50;;;2.10;92.30;;;;;;5055721;28;20040;-79
2022/01/15 09:25:05;;;;;;;453.35;251.48;;;2.50;92.30;;;;;;5055761;28;20028;-79
2022/01/15 09:30:19;;;;;;;439.80;243.82;;;2.70;91.00;;;;;;5055848;28;20395;-79
2022/01/15 09:32:54;;;;;;;451.52;255.07;;;2.70;90.80;;;;;;5038825;28;20365;-79
2022/01/15 09:35:30;;;;;;;466.58;258.05;;;2.90;91.10;;;;;;5056075;28;20021;-80
2022/01/15 09:37:57;;;;;;;469.92;267.05;;;2.90;90.70;;;;;;5056061;28;20047;-79
2022/01/15 09:40:25;;;;;;;474.15;262.60;;;3.00;90.80;;;;;;5039029;28;20119;-78
2022/01/15 09:42:51;;;;;;;481.67;268.48;;;3.10;90.80;;;;;;5055543;28;20332;-79
2022/01/15 09:45:20;;;;;;;432.38;243.88;;;3.10;90.50;;;;;;5038541;28;20258;-78
2022/01/15 09:47:49;;;;;;;472.23;270.23;;;3.10;90.20;;;;;;5056123;28;20094;-78
2022/01/15 09:50:16;;;;;;;460.80;261.38;;;3.00;90.60;;;;;;5079428;28;20027;-79
2022/01/15 09:52:42;;;;;;;454.27;251.32;;;2.90;90.90;;;;;;5079146;28;20036;-78
2022/01/15 09:55:14;;;;;;;441.88;245.00;;;2.80;90.90;;;;;;5059470;28;20126;-79
2022/01/15 09:57:41;;;;;;;441.25;248.18;;;3.00;90.80;;;;;;5060596;28;20020;-79
2022/01/15 10:00:14;;;;;;;459.75;255.27;;;2.80;91.00;;;;;;5061427;28;20031;-79
2022/01/15 10:02:42;;;;;;;453.63;247.10;;;2.80;91.20;;;;;;5061092;28;20019;-79
2022/01/15 10:05:08;;;;;;;430.52;244.23;;;2.90;90.90;;;;;;5079300;28;20341;-78
2022/01/15 10:07:34;;;;;;;407.70;228.65;;;2.80;91.20;;;;;;5078956;28;20112;-79
2022/01/15 10:10:18;;;;;;;427.25;234.15;;;2.90;90.60;;;;;;5059892;28;20044;-78
2022/01/15 10:12:44;;;;;;;430.15;235.90;;;2.80;91.20;;;;;;5060374;28;20040;-79
2022/01/15 10:15:11;;;;;;;432.02;238.07;;;2.60;91.50;;;;;;5078927;28;20024;-78
2022/01/15 10:17:39;;;;;;;413.45;227.50;;;2.60;91.50;;;;;;5061456;28;20043;-78
2022/01/15 10:20:17;;;;;;;413.63;230.90;;;2.70;91.50;;;;;;5060566;28;20024;-78
2022/01/15 10:22:48;;;;;;;414.15;227.82;;;2.60;91.30;;;;;;5061039;28;20035;-77
2022/01/15 10:25:21;;;;;;;432.40;234.88;;;2.80;91.20;;;;;;5081877;28;20295;-79
2022/01/15 10:27:54;;;;;;;420.15;236.10;;;2.80;91.00;;;;;;5065382;28;20226;-78
2022/01/15 10:30:22;;;;;;;474.80;268.30;;;1.30;90.70;;;;;;5083234;28;20150;-79
2022/01/15 10:33:01;;;;;;;499.25;276.95;;;2.90;91.20;;;;;;5065525;28;20620;-79
2022/01/15 10:35:40;;;;;;;497.63;278.10;;;2.90;91.10;;;;;;5083502;28;20028;-79
2022/01/15 10:38:13;;;;;;;490.10;273.85;;;3.00;91.00;;;;;;5064738;28;20024;-79
2022/01/15 10:40:55;;;;;;;468.95;259.92;;;3.00;91.30;;;;;;5065092;28;20016;-79
2022/01/15 10:43:30;;;;;;;456.58;258.08;;;3.10;91.00;;;;;;5064172;28;20458;-78
2022/01/15 10:46:01;;;;;;;444.55;247.18;;;3.10;90.60;;;;;;5083622;28;20186;-79
2022/01/15 10:48:35;;;;;;;445.45;247.63;;;3.20;90.60;;;;;;5082990;28;20105;-79
2022/01/15 10:51:03;;;;;;;426.15;239.43;;;3.30;90.80;;;;;;5064738;28;20038;-78
2022/01/15 10:53:33;;;;;;;427.98;242.20;;;3.30;90.40;;;;;;5082319;28;20016;-79
2022/01/15 10:56:00;;;;;;;415.90;234.13;;;3.40;90.50;;;;;;5065899;28;20597;-78
2022/01/15 10:58:26;;;;;;;416.23;234.70;;;3.50;90.40;;;;;;5085326;28;20043;-78
2022/01/15 11:00:52;;;;;;;408.00;224.65;;;3.50;90.30;;;;;;5086291;28;20023;-77
2022/01/15 11:03:19;;;;;;;437.60;246.90;;;3.50;90.40;;;;;;5067905;28;20024;-78
2022/01/15 11:05:49;;;;;;;417.50;235.80;;;3.50;90.40;;;;;;5072677;28;20264;-78
2022/01/15 11:08:21;;;;;;;449.35;248.82;;;3.60;90.30;;;;;;5091293;28;20051;-78
2022/01/15 11:10:50;;;;;;;458.00;258.63;;;3.70;90.10;;;;;;5093361;28;20356;-78
2022/01/15 11:13:21;;;;;;;432.98;242.82;;;3.80;90.40;;;;;;5071642;28;20169;-78
2022/01/15 11:15:54;;;;;;;535.88;282.90;;;3.80;90.50;;;;;;5086069;28;20099;-77
2022/01/15 11:18:29;;;;;;;583.08;297.88;;;4.00;90.50;;;;;;5084173;28;20097;-78
2022/01/15 11:21:03;;;;;;;450.02;244.90;;;4.20;90.10;;;;;;5064709;28;20016;-77
2022/01/15 11:23:30;;;;;;;440.70;236.80;;;4.30;89.20;;;;;;5064679;28;20031;-78
2022/01/15 11:25:59;;;;;;;432.95;244.73;;;4.40;89.40;;;;;;5062956;28;20058;-78
2022/01/15 11:28:27;;;;;;;445.33;248.88;;;5.60;89.80;;;;;;5064308;28;20034;-77
2022/01/15 11:31:13;;;;;;;406.52;220.25;;;4.70;88.40;;;;;;5082349;28;20530;-78
2022/01/15 11:33:47;;;;;;;394.75;215.38;;;4.90;87.00;;;;;;5082406;28;20024;-78
2022/01/15 11:36:31;;;;;;;401.77;222.48;;;4.80;86.40;;;;;;5063387;28;20024;-77
2022/01/15 11:38:58;;;;;;;368.73;198.35;;;4.90;87.00;;;;;;5082586;28;20012;-78
2022/01/15 11:41:26;;;;;;;342.17;189.98;;;5.00;86.90;;;;;;5082636;28;20039;-78
2022/01/15 11:44:04;;;;;;;316.88;171.60;;;5.10;87.00;;;;;;5064241;28;20058;-77
2022/01/15 11:46:41;;;;;;;315.55;164.80;;;5.40;87.00;;;;;;5082386;28;20028;-78
2022/01/15 11:49:29;;;;;;;329.35;168.40;;;5.70;85.80;;;;;;5082447;28;20028;-78
2022/01/15 11:52:22;;;;;;;322.40;167.57;;;6.00;84.10;;;;;;5082591;28;20327;-78
2022/01/15 11:55:04;;;;;;;290.75;153.00;;;6.40;83.40;;;;;;4963368;28;20038;-77
2022/01/15 11:57:36;;;;;;;229.40;117.22;;;6.50;80.20;;;;;;4962665;28;20323;-78
2022/01/15 12:00:06;;;;;;;211.57;111.88;;;6.50;80.50;;;;;;4963505;28;20042;-78
2022/01/15 12:02:34;;;;;;;208.38;112.05;;;6.60;78.70;;;;;;4979630;28;20030;-77
2022/01/15 12:05:25;;;;;;;200.43;106.80;;;6.50;80.60;;;;;;4979279;28;20101;-78
2022/01/15 12:08:03;;;;;;;197.40;102.32;;;6.30;80.90;;;;;;4962552;28;20041;-78
2022/01/15 12:10:42;;;;;;;178.45;92.20;;;6.40;81.50;;;;;;4962932;28;20251;-77
2022/01/15 12:13:12;;;;;;;164.23;85.50;;;6.50;81.60;;;;;;4979278;28;20050;-78
2022/01/15 12:15:38;;;;;;;147.75;79.35;;;7.20;81.60;;;;;;4980158;28;20508;-78
2022/01/15 12:18:21;;;;;;;155.13;81.15;;;6.90;80.40;;;;;;4963545;28;20027;-79
2022/01/15 12:20:54;;;;;;;164.95;84.00;;;7.00;81.20;;;;;;4980049;28;20725;-78
2022/01/15 12:23:19;;;;;;;254.20;119.10;;;7.20;80.40;;;;;;4963416;28;20026;-77
2022/01/15 12:25:47;;;;;;;196.10;95.78;;;7.40;79.20;;;;;;4979702;28;20042;-78
2022/01/15 12:28:15;;;;;;;233.82;108.35;;;7.50;78.60;;;;;;4978777;28;20294;-77
2022/01/15 12:30:50;;;;;;;210.27;100.25;;;7.60;77.30;;;;;;4980050;28;20042;-78
2022/01/15 12:33:19;;;;;;;158.27;81.97;;;7.90;76.90;;;;;;5064072;28;20035;-77
2022/01/15 12:35:51;;;;;;;160.90;82.13;;;7.90;77.70;;;;;;5082876;28;20309;-78
2022/01/15 12:38:28;;;;;;;132.68;71.00;;;8.00;76.50;;;;;;5065303;28;20103;-78
2022/01/15 12:41:04;;;;;;;139.13;74.20;;;8.10;76.00;;;;;;5063485;28;20131;-77
2022/01/15 12:43:37;;;;;;;;;;;8.20;75.50;;;;;;5064240;28;20063;-78
2022/01/15 12:46:16;;;;;;;149.05;78.53;;;8.30;75.10;;;;;;5081396;28;19908;-78
2022/01/15 12:48:44;;;;;;;167.98;87.45;;;8.40;73.40;;;;;;5081707;28;20286;-77
2022/01/15 12:51:14;;;;;;;165.48;86.22;;;8.30;73.30;;;;;;5064271;28;20012;-78